aviador You're here:

SARI Decoded Metar

IGUAZU FALLS in ARGENTINA
Report Time2017-11-24 09:00:00
UTC Time2017-11-24 09:06:38
Flight Rules vfr VFR
WindCalm
Visibility9999 m
Phenomena:N/A
Clouds:N/A
Expected CloudBase > 800 ft AGL from Temp-Dew spread
CeilingNone
Temp16°C (ISA +3)
Dew Point14°C (88% RH)
QNH1013 hPa
Density Alt1,427 ft
Elevation886 ft
Report Wrong Elevation
Raw Report
METAR SARI 240900Z 00000KT CAVOK 16/14 Q1013=

Extra information for SARI:More info

Metar Taf Metar & Taf Last 4 Metars F.Rules Stats Wind Profile Meteogram Temp Stats Airport Information Weather charts Add Link Nearby VenuesMetar ALERT Operation Metar Decoded Social comments